createdAt,value
2019-05-23T00:00:42.321Z,97808.98
2019-05-23T00:02:45.534Z,97808.64
2019-05-23T00:04:47.681Z,97812.17
2019-05-23T00:06:49.292Z,97821.63
2019-05-23T00:08:50.872Z,97819.96
2019-05-23T00:10:53.056Z,97817.04
2019-05-23T00:12:59.529Z,97814.94
2019-05-23T00:15:01.425Z,97826.05
2019-05-23T00:17:02.775Z,97817.48
2019-05-23T00:19:04.656Z,97820.78
2019-05-23T00:21:06.260Z,97825.33
2019-05-23T00:23:07.848Z,97823.44
2019-05-23T00:25:09.454Z,97819.38
2019-05-23T00:27:11.063Z,97817.13
2019-05-23T00:29:12.693Z,97815.80
2019-05-23T00:31:27.176Z,97813.64
2019-05-23T00:33:28.756Z,97826.30
2019-05-23T00:35:30.364Z,97810.50
2019-05-23T00:37:31.970Z,97813.48
2019-05-23T00:39:33.670Z,97818.25
2019-05-23T00:41:35.265Z,97811.52
2019-05-23T00:43:36.867Z,97814.26
2019-05-23T00:45:38.453Z,97813.89
2019-05-23T00:47:40.045Z,97821.25
2019-05-23T00:49:41.680Z,97814.94
2019-05-23T00:51:43.287Z,97818.32
2019-05-23T00:53:44.927Z,97824.05
2019-05-23T00:55:46.532Z,97817.58
2019-05-23T00:57:48.135Z,97818.36
2019-05-23T00:59:49.730Z,97817.99
2019-05-23T01:01:51.336Z,97821.44
2019-05-23T01:03:52.986Z,97821.94
2019-05-23T01:05:54.588Z,97818.09
2019-05-23T01:07:56.199Z,97817.64
2019-05-23T01:09:57.862Z,97823.47
2019-05-23T01:11:59.489Z,97828.42
2019-05-23T01:14:01.073Z,97830.20
2019-05-23T01:16:02.670Z,97826.44
2019-05-23T01:18:04.254Z,97789.61
2019-05-23T01:20:05.842Z,97835.84
2019-05-23T01:22:07.492Z,97829.09
2019-05-23T01:24:13.977Z,97828.69
2019-05-23T01:26:15.559Z,97827.48
2019-05-23T01:28:17.175Z,97829.28
2019-05-23T01:30:23.236Z,97832.39
2019-05-23T01:32:25.741Z,97825.23
2019-05-23T01:34:27.355Z,97837.63
2019-05-23T01:36:28.946Z,97829.99
2019-05-23T01:38:30.560Z,97780.42
2019-05-23T01:40:32.148Z,97822.43
2019-05-23T01:42:33.764Z,97832.68
2019-05-23T01:44:35.426Z,97832.24
2019-05-23T01:46:37.008Z,97831.72
2019-05-23T01:48:38.656Z,97838.88
2019-05-23T01:50:40.345Z,97828.93
2019-05-23T01:52:41.961Z,97831.66
2019-05-23T01:54:43.640Z,97843.36
2019-05-23T01:56:45.233Z,97828.97
2019-05-23T01:58:46.887Z,97838.75
2019-05-23T02:00:48.517Z,97837.37
2019-05-23T02:02:50.132Z,97838.83
2019-05-23T02:04:51.759Z,97776.21
2019-05-23T02:06:53.369Z,97836.55
2019-05-23T02:08:54.980Z,97832.29
2019-05-23T02:10:56.558Z,97831.16
2019-05-23T02:12:58.149Z,97823.23
2019-05-23T02:14:59.768Z,97826.05
2019-05-23T02:17:01.702Z,97829.37
2019-05-23T02:19:03.207Z,97825.88
2019-05-23T02:21:04.852Z,97830.22
2019-05-23T02:23:06.516Z,97827.77
2019-05-23T02:25:08.113Z,97830.98
2019-05-23T02:27:09.761Z,97840.38
2019-05-23T02:29:11.348Z,97838.78
2019-05-23T02:31:12.927Z,97789.34
2019-05-23T02:33:14.541Z,97839.36
2019-05-23T02:35:16.185Z,97835.64
2019-05-23T02:37:33.421Z,97840.91
2019-05-23T02:39:35.483Z,97843.25
2019-05-23T02:41:37.981Z,97838.20
2019-05-23T02:43:39.589Z,97843.56
2019-05-23T02:45:41.222Z,97840.55
2019-05-23T02:47:42.828Z,97848.78
2019-05-23T02:49:44.421Z,97846.48
2019-05-23T02:51:46.037Z,97824.49
2019-05-23T02:53:47.624Z,97840.56
2019-05-23T02:55:49.213Z,97804.02
2019-05-23T02:57:50.826Z,97836.45
2019-05-23T02:59:52.419Z,97841.03
2019-05-23T03:01:54.955Z,97842.46
2019-05-23T03:03:56.578Z,97844.27
2019-05-23T03:05:58.217Z,97841.84
2019-05-23T03:07:59.824Z,97838.11
2019-05-23T03:10:01.414Z,97839.88
2019-05-23T03:12:03.045Z,97843.37
2019-05-23T03:14:04.690Z,97843.92
2019-05-23T03:16:06.301Z,97844.47
2019-05-23T03:18:07.944Z,97834.76
2019-05-23T03:20:09.536Z,97838.24
2019-05-23T03:22:11.229Z,97837.90
2019-05-23T03:24:12.903Z,97832.87
2019-05-23T03:26:14.489Z,97830.83
2019-05-23T03:28:16.104Z,97832.17
2019-05-23T03:30:20.289Z,97829.69
2019-05-23T03:32:24.323Z,97828.83
2019-05-23T03:34:25.928Z,97832.16
2019-05-23T03:36:27.524Z,97833.30
2019-05-23T03:38:29.109Z,97834.83
2019-05-23T03:40:30.689Z,97837.53
2019-05-23T03:42:32.368Z,97844.56
2019-05-23T03:44:34.043Z,97841.28
2019-05-23T03:46:35.649Z,97839.74
2019-05-23T03:48:37.391Z,97838.07
2019-05-23T03:50:39.064Z,97839.84
2019-05-23T03:52:40.646Z,97838.66
2019-05-23T03:54:42.307Z,97842.84
2019-05-23T03:56:43.898Z,97843.38
2019-05-23T03:58:45.488Z,97840.39
2019-05-23T04:00:47.981Z,97838.67
2019-05-23T04:02:49.588Z,97804.29
2019-05-23T04:04:51.231Z,97842.45
2019-05-23T04:06:52.982Z,97843.37
2019-05-23T04:08:54.590Z,97846.95
2019-05-23T04:10:56.219Z,97851.45
2019-05-23T04:12:57.840Z,97857.53
2019-05-23T04:14:59.448Z,97854.36
2019-05-23T04:17:01.033Z,97849.00
2019-05-23T04:19:02.611Z,97858.11
2019-05-23T04:21:04.281Z,97856.98
2019-05-23T04:23:05.872Z,97857.55
2019-05-23T04:25:07.488Z,97861.50
2019-05-23T04:27:09.104Z,97862.06
2019-05-23T04:29:10.678Z,97802.19
2019-05-23T04:31:13.359Z,97858.91
2019-05-23T04:33:13.920Z,97863.58
2019-05-23T04:35:15.567Z,97861.95
2019-05-23T04:37:17.276Z,97862.02
2019-05-23T04:39:18.848Z,97866.79
2019-05-23T04:41:20.505Z,97866.02
2019-05-23T04:43:22.100Z,97865.23
2019-05-23T04:45:23.721Z,97858.92
2019-05-23T04:47:25.316Z,97862.88
2019-05-23T04:49:26.919Z,97862.48
2019-05-23T04:51:28.567Z,97869.79
2019-05-23T04:53:30.180Z,97866.45
2019-05-23T04:55:31.820Z,97871.20
2019-05-23T04:57:33.486Z,97869.16
2019-05-23T04:59:35.077Z,97875.98
2019-05-23T05:01:36.689Z,97871.77
2019-05-23T05:03:38.309Z,97876.45
2019-05-23T05:05:39.976Z,97841.19
2019-05-23T05:07:41.597Z,97877.97
2019-05-23T05:09:43.185Z,97877.88
2019-05-23T05:11:44.822Z,97880.73
2019-05-23T05:13:46.416Z,97879.72
2019-05-23T05:15:48.005Z,97885.14
2019-05-23T05:17:49.626Z,97885.84
2019-05-23T05:19:51.218Z,97881.05
2019-05-23T05:21:52.824Z,97889.02
2019-05-23T05:23:54.407Z,97889.77
2019-05-23T05:25:55.998Z,97884.52
2019-05-23T05:27:57.676Z,97883.91
2019-05-23T05:29:59.292Z,97887.50
2019-05-23T05:32:03.638Z,97872.69
2019-05-23T05:34:02.577Z,97847.50
2019-05-23T05:36:04.402Z,97891.02
2019-05-23T05:38:06.160Z,97891.84
2019-05-23T05:40:07.822Z,97892.31
2019-05-23T05:42:09.436Z,97892.41
2019-05-23T05:44:11.782Z,97904.80
2019-05-23T05:46:12.723Z,97901.46
2019-05-23T05:48:14.346Z,97904.15
2019-05-23T05:50:15.964Z,97906.45
2019-05-23T05:52:17.598Z,97909.17
2019-05-23T05:54:19.183Z,97901.56
2019-05-23T05:56:20.805Z,97900.84
2019-05-23T05:58:22.413Z,97905.20
2019-05-23T06:00:40.731Z,97900.11
2019-05-23T06:02:42.363Z,97902.23
2019-05-23T06:04:43.952Z,97908.19
2019-05-23T06:06:50.096Z,97906.06
2019-05-23T06:08:49.742Z,97918.95
2019-05-23T06:10:51.237Z,97918.66
2019-05-23T06:12:52.822Z,97920.86
2019-05-23T06:14:54.472Z,97921.38
2019-05-23T06:16:56.106Z,97919.74
2019-05-23T06:18:58.381Z,97921.14
2019-05-23T06:20:59.997Z,97919.48
2019-05-23T06:23:01.608Z,97922.54
2019-05-23T06:25:04.385Z,97923.46
2019-05-23T06:27:05.167Z,97928.59
2019-05-23T06:29:07.016Z,97926.53
2019-05-23T06:31:08.509Z,97886.28
2019-05-23T06:33:22.534Z,97930.38
2019-05-23T06:35:11.825Z,97924.42
2019-05-23T06:37:13.463Z,97923.96
2019-05-23T06:39:15.043Z,97924.77
2019-05-23T06:41:16.717Z,97931.56
2019-05-23T06:43:18.926Z,97922.96
2019-05-23T06:45:20.580Z,97924.59
2019-05-23T06:47:22.220Z,97931.70
2019-05-23T06:49:23.809Z,97922.30
2019-05-23T06:51:25.392Z,97927.27
2019-05-23T06:53:26.980Z,97933.52
2019-05-23T06:55:28.618Z,97933.84
2019-05-23T06:57:30.259Z,97928.50
2019-05-23T06:59:31.838Z,97932.12
2019-05-23T07:01:33.466Z,97928.55
2019-05-23T07:03:42.562Z,97939.05
2019-05-23T07:05:36.778Z,97933.44
2019-05-23T07:07:38.534Z,97937.98
2019-05-23T07:09:40.119Z,97940.95
2019-05-23T07:11:41.754Z,97942.59
2019-05-23T07:13:43.393Z,97936.20
2019-05-23T07:15:44.968Z,97941.37
2019-05-23T07:17:46.573Z,97942.25
2019-05-23T07:19:48.162Z,97942.67
2019-05-23T07:21:49.764Z,97944.92
2019-05-23T07:23:51.355Z,97947.57
2019-05-23T07:25:52.962Z,97943.81
2019-05-23T07:27:54.552Z,97940.51
2019-05-23T07:29:56.343Z,97939.34
2019-05-23T07:31:57.930Z,97945.91
2019-05-23T07:34:02.377Z,97947.77
2019-05-23T07:36:01.284Z,97944.86
2019-05-23T07:38:02.884Z,97943.73
2019-05-23T07:40:04.474Z,97945.57
2019-05-23T07:42:06.169Z,97946.95
2019-05-23T07:44:07.854Z,97950.90
2019-05-23T07:46:09.462Z,97953.46
2019-05-23T07:48:11.070Z,97955.72
2019-05-23T07:50:12.692Z,97951.51
2019-05-23T07:52:14.320Z,97957.08
2019-05-23T07:54:16.464Z,97958.84
2019-05-23T07:56:18.672Z,97958.44
2019-05-23T07:58:20.267Z,97959.76
2019-05-23T08:00:26.610Z,97967.92
2019-05-23T08:02:29.089Z,97971.78
2019-05-23T08:04:30.681Z,97970.48
2019-05-23T08:06:32.280Z,97969.63
2019-05-23T08:08:33.878Z,97961.91
2019-05-23T08:10:35.512Z,97972.91
2019-05-23T08:12:37.103Z,97973.67
2019-05-23T08:14:38.784Z,97970.58
2019-05-23T08:16:40.363Z,97972.11
2019-05-23T08:18:41.963Z,97980.10
2019-05-23T08:20:43.592Z,97932.00
2019-05-23T08:22:45.164Z,97975.98
2019-05-23T08:24:50.898Z,97973.28
2019-05-23T08:26:48.449Z,97975.34
2019-05-23T08:29:12.775Z,97973.91
2019-05-23T08:30:51.744Z,97978.10
2019-05-23T08:32:53.347Z,97980.94
2019-05-23T08:34:54.968Z,97976.66
2019-05-23T08:36:56.542Z,97977.08
2019-05-23T08:38:58.136Z,97953.09
2019-05-23T08:40:59.773Z,97981.61
2019-05-23T08:43:01.393Z,97977.70
2019-05-23T08:45:02.999Z,97973.01
2019-05-23T08:47:04.588Z,97967.96
2019-05-23T08:49:06.162Z,97974.86
2019-05-23T08:51:07.785Z,97981.72
2019-05-23T08:53:09.427Z,97985.27
2019-05-23T08:55:11.042Z,97987.05
2019-05-23T08:57:12.633Z,97984.16
2019-05-23T08:59:14.262Z,97989.34
2019-05-23T09:01:15.854Z,97994.53
2019-05-23T09:03:17.443Z,97992.53
2019-05-23T09:05:19.039Z,97931.30
2019-05-23T09:07:20.619Z,97986.72
2019-05-23T09:09:29.719Z,97995.30
2019-05-23T09:11:24.078Z,97993.61
2019-05-23T09:13:25.668Z,97996.66
2019-05-23T09:15:27.280Z,98000.09
2019-05-23T09:17:28.877Z,98004.83
2019-05-23T09:19:30.485Z,97995.52
2019-05-23T09:21:32.112Z,97999.38
2019-05-23T09:23:33.701Z,98004.55
2019-05-23T09:25:35.288Z,98001.23
2019-05-23T09:27:36.873Z,98004.17
2019-05-23T09:29:38.450Z,98005.50
2019-05-23T09:31:40.041Z,98000.77
2019-05-23T09:33:41.626Z,97961.33
2019-05-23T09:35:43.248Z,97994.75
2019-05-23T09:37:44.858Z,97996.73
2019-05-23T09:39:46.466Z,97991.41
2019-05-23T09:41:48.049Z,97992.90
2019-05-23T09:43:49.625Z,97991.47
2019-05-23T09:45:51.258Z,97991.75
2019-05-23T09:47:52.872Z,97993.28
2019-05-23T09:49:54.597Z,97993.93
2019-05-23T09:52:00.833Z,97998.52
2019-05-23T09:53:58.011Z,98004.30
2019-05-23T09:55:59.772Z,97994.84
2019-05-23T09:58:01.360Z,98004.13
2019-05-23T10:00:03.099Z,97995.57
2019-05-23T10:02:04.837Z,97996.09
2019-05-23T10:04:06.499Z,97999.16
2019-05-23T10:06:08.116Z,97993.55
2019-05-23T10:08:09.723Z,97988.84
2019-05-23T10:10:11.341Z,97988.28
2019-05-23T10:12:12.967Z,97984.01
2019-05-23T10:14:14.558Z,97990.53
2019-05-23T10:16:16.173Z,97987.65
2019-05-23T10:18:18.308Z,97985.88
2019-05-23T10:20:19.898Z,97985.44
2019-05-23T10:22:21.520Z,97989.76
2019-05-23T10:24:23.105Z,97984.16
2019-05-23T10:26:24.720Z,97987.58
2019-05-23T10:28:26.336Z,97980.46
2019-05-23T10:30:27.914Z,97978.83
2019-05-23T10:32:29.544Z,97977.69
2019-05-23T10:34:31.139Z,97984.03
2019-05-23T10:36:32.739Z,97999.97
2019-05-23T10:38:34.384Z,97977.86
2019-05-23T10:40:35.977Z,97978.70
2019-05-23T10:42:37.768Z,97980.93
2019-05-23T10:44:39.336Z,97984.50
2019-05-23T10:46:40.915Z,97985.02
2019-05-23T10:48:42.502Z,97981.16
2019-05-23T10:50:45.348Z,97984.56
2019-05-23T10:52:45.757Z,97985.00
2019-05-23T10:54:47.337Z,97976.48
2019-05-23T10:56:48.920Z,97966.66
2019-05-23T10:58:50.524Z,97973.46
2019-05-23T11:00:52.194Z,97970.07
2019-05-23T11:02:53.806Z,97962.39
2019-05-23T11:04:55.431Z,97961.09
2019-05-23T11:06:57.017Z,97958.87
2019-05-23T11:08:58.655Z,97960.17
2019-05-23T11:11:00.320Z,97956.36
2019-05-23T11:13:02.003Z,97956.28
2019-05-23T11:15:03.629Z,97956.27
2019-05-23T11:17:05.217Z,97952.43
2019-05-23T11:19:06.804Z,97948.45
2019-05-23T11:21:08.447Z,97940.27
2019-05-23T11:23:10.056Z,97947.06
2019-05-23T11:25:11.762Z,97952.11
2019-05-23T11:27:13.371Z,97946.06
2019-05-23T11:29:14.987Z,97943.09
2019-05-23T11:31:16.632Z,97936.74
2019-05-23T11:33:18.246Z,97939.52
2019-05-23T11:35:19.868Z,97938.14
2019-05-23T11:37:21.470Z,97931.27
2019-05-23T11:39:23.188Z,97928.68
2019-05-23T11:41:24.855Z,97890.19
2019-05-23T11:43:26.468Z,97929.09
2019-05-23T11:45:28.092Z,97935.00
2019-05-23T11:47:31.967Z,97929.04
2019-05-23T11:49:31.417Z,97934.58
2019-05-23T11:51:33.080Z,97931.16
2019-05-23T11:53:34.693Z,97931.19
2019-05-23T11:55:36.324Z,97926.12
2019-05-23T11:57:38.433Z,97931.25
2019-05-23T11:59:39.556Z,97922.78
2019-05-23T12:01:42.061Z,97909.98
2019-05-23T12:03:43.712Z,97914.71
2019-05-23T12:05:45.302Z,97922.45
2019-05-23T12:07:46.911Z,97920.39
2019-05-23T12:09:48.532Z,97920.03
2019-05-23T12:11:50.178Z,97913.28
2019-05-23T12:13:51.773Z,97912.09
2019-05-23T12:15:53.388Z,97924.03
2019-05-23T12:17:54.981Z,97928.75
2019-05-23T12:19:56.616Z,97919.86
2019-05-23T12:21:58.233Z,97922.48
2019-05-23T12:23:59.987Z,97916.97
2019-05-23T12:26:01.950Z,97922.58
2019-05-23T12:28:03.596Z,97920.89
2019-05-23T12:30:05.213Z,97912.86
2019-05-23T12:32:06.824Z,97910.36
2019-05-23T12:34:08.469Z,97898.44
2019-05-23T12:36:10.056Z,97899.77
2019-05-23T12:38:11.692Z,97898.50
2019-05-23T12:40:13.290Z,97903.19
2019-05-23T12:42:14.907Z,97904.47
2019-05-23T12:44:17.659Z,97901.49
2019-05-23T12:46:18.214Z,97893.38
2019-05-23T12:48:20.794Z,97889.13
2019-05-23T12:50:22.389Z,97892.13
2019-05-23T12:52:24.190Z,97889.53
2019-05-23T12:54:25.819Z,97884.33
2019-05-23T12:56:27.410Z,97876.59
2019-05-23T12:58:28.990Z,97877.44
2019-05-23T13:00:36.487Z,97880.44
2019-05-23T13:02:37.931Z,97875.30
2019-05-23T13:04:39.544Z,97885.47
2019-05-23T13:06:41.195Z,97885.05
2019-05-23T13:08:42.805Z,97874.72
2019-05-23T13:10:44.429Z,97881.06
2019-05-23T13:12:46.016Z,97880.97
2019-05-23T13:14:47.624Z,97840.61
2019-05-23T13:16:49.254Z,97873.17
2019-05-23T13:18:50.846Z,97871.73
2019-05-23T13:20:52.434Z,97875.93
2019-05-23T13:22:54.053Z,97871.41
2019-05-23T13:24:55.697Z,97870.59
2019-05-23T13:26:57.504Z,97863.23
2019-05-23T13:28:59.177Z,97863.21
2019-05-23T13:31:00.776Z,97865.09
2019-05-23T13:33:03.709Z,97865.14
2019-05-23T13:35:04.053Z,97861.13
2019-05-23T13:37:05.693Z,97858.05
2019-05-23T13:39:07.321Z,97861.46
2019-05-23T13:41:08.935Z,97850.05
2019-05-23T13:43:10.542Z,97851.81
2019-05-23T13:45:12.129Z,97850.95
2019-05-23T13:47:13.812Z,97857.38
2019-05-23T13:49:15.427Z,97855.73
2019-05-23T13:51:17.050Z,97851.95
2019-05-23T13:53:18.661Z,97851.61
2019-05-23T13:55:20.287Z,97842.67
2019-05-23T13:57:21.913Z,97853.51
2019-05-23T13:59:23.519Z,97853.94
2019-05-23T14:01:25.170Z,97852.73
2019-05-23T14:03:26.766Z,97855.04
2019-05-23T14:05:28.343Z,97855.19
2019-05-23T14:07:29.969Z,97848.52
2019-05-23T14:12:24.981Z,97848.76
2019-05-23T14:14:11.834Z,97844.16
2019-05-23T14:16:13.395Z,97846.80
2019-05-23T14:18:15.490Z,97842.98
2019-05-23T14:20:17.084Z,97844.74
2019-05-23T14:22:18.720Z,97841.41
2019-05-23T14:24:20.324Z,97842.69
2019-05-23T14:26:21.933Z,97839.78
2019-05-23T14:28:23.581Z,97837.73
2019-05-23T14:30:40.928Z,97823.66
2019-05-23T14:32:44.549Z,97837.03
2019-05-23T14:34:46.148Z,97836.20
2019-05-23T14:36:50.336Z,97837.50
2019-05-23T14:38:51.958Z,97831.98
2019-05-23T14:40:53.564Z,97840.12
2019-05-23T14:42:55.977Z,97845.19
2019-05-23T14:44:57.665Z,97844.64
2019-05-23T14:46:59.340Z,97852.14
2019-05-23T14:49:01.796Z,97846.89
2019-05-23T14:51:03.443Z,97842.98
2019-05-23T14:53:05.583Z,97847.21
2019-05-23T14:55:10.156Z,97837.36
2019-05-23T14:57:08.874Z,97845.78
2019-05-23T14:59:10.459Z,97838.81
2019-05-23T15:01:12.071Z,97837.51
2019-05-23T15:03:13.693Z,97812.33
2019-05-23T15:05:15.304Z,97837.51
2019-05-23T15:07:16.928Z,97841.38
2019-05-23T15:09:21.312Z,97851.50
2019-05-23T15:11:20.210Z,97849.87
2019-05-23T15:13:21.803Z,97846.76
2019-05-23T15:15:23.436Z,97844.01
2019-05-23T15:17:25.099Z,97842.95
2019-05-23T15:19:40.447Z,97836.28
2019-05-23T15:21:28.338Z,97837.65
2019-05-23T15:23:29.918Z,97837.36
2019-05-23T15:25:31.552Z,97837.88
2019-05-23T15:27:33.390Z,97832.12
2019-05-23T15:29:35.180Z,97835.47
2019-05-23T15:31:36.783Z,97836.66
2019-05-23T15:33:38.388Z,97833.52
2019-05-23T15:35:40.029Z,97835.11
2019-05-23T15:37:41.705Z,97829.20
2019-05-23T15:39:43.332Z,97827.59
2019-05-23T15:41:44.916Z,97828.93
2019-05-23T15:43:46.524Z,97826.09
2019-05-23T15:45:48.159Z,97828.77
2019-05-23T15:47:49.749Z,97829.70
2019-05-23T15:49:51.331Z,97836.18
2019-05-23T15:51:54.233Z,97825.23
2019-05-23T15:53:55.435Z,97830.00
2019-05-23T15:55:57.072Z,97825.82
2019-05-23T15:57:59.568Z,97828.44
2019-05-23T16:00:04.073Z,97820.06
2019-05-23T16:02:08.153Z,97826.00
2019-05-23T16:04:10.632Z,97818.45
2019-05-23T16:06:14.861Z,97821.88
2019-05-23T16:08:16.518Z,97824.08
2019-05-23T16:10:18.124Z,97823.28
2019-05-23T16:12:19.733Z,97825.36
2019-05-23T16:14:21.353Z,97824.33
2019-05-23T16:16:22.966Z,97824.37
2019-05-23T16:18:25.215Z,97827.64
2019-05-23T16:20:26.569Z,97823.95
2019-05-23T16:22:28.188Z,97826.30
2019-05-23T16:24:29.780Z,97828.45
2019-05-23T16:26:31.431Z,97819.77
2019-05-23T16:28:33.052Z,97822.76
2019-05-23T16:30:34.712Z,97826.67
2019-05-23T16:32:36.350Z,97832.33
2019-05-23T16:34:37.967Z,97832.43
2019-05-23T16:36:39.546Z,97830.38
2019-05-23T16:38:41.141Z,97827.97
2019-05-23T16:40:42.842Z,97789.91
2019-05-23T16:42:44.433Z,97832.98
2019-05-23T16:44:46.004Z,97827.16
2019-05-23T16:46:47.613Z,97820.70
2019-05-23T16:48:49.232Z,97826.14
2019-05-23T16:50:50.821Z,97832.68
2019-05-23T16:52:52.467Z,97823.88
2019-05-23T16:54:54.088Z,97818.05
2019-05-23T16:57:00.837Z,97833.06
2019-05-23T16:59:08.429Z,97826.81
2019-05-23T17:01:23.514Z,97833.63
2019-05-23T17:03:14.123Z,97837.11
2019-05-23T17:05:20.324Z,97838.88
2019-05-23T17:07:24.889Z,97837.85
2019-05-23T17:09:31.777Z,97836.17
2019-05-23T17:11:31.908Z,97835.78
2019-05-23T17:13:34.037Z,97833.67
2019-05-23T17:15:53.463Z,97836.72
2019-05-23T17:18:03.176Z,97832.58
2019-05-23T17:20:18.489Z,97835.15
2019-05-23T17:22:09.817Z,97811.28
2019-05-23T17:24:12.934Z,97836.55
2019-05-23T17:26:31.233Z,97837.03
2019-05-23T17:28:33.775Z,97834.11
2019-05-23T17:30:36.786Z,97837.16
2019-05-23T17:32:38.402Z,97837.22
2019-05-23T17:34:40.011Z,97832.19
2019-05-23T17:36:41.638Z,97836.44
2019-05-23T17:38:43.273Z,97839.39
2019-05-23T17:40:44.979Z,97838.73
2019-05-23T17:42:46.615Z,97836.66
2019-05-23T17:44:48.212Z,97833.81
2019-05-23T17:46:49.885Z,97838.69
2019-05-23T17:48:51.474Z,97835.59
2019-05-23T17:50:53.060Z,97830.91
2019-05-23T17:52:55.945Z,97836.30
2019-05-23T17:54:57.560Z,97838.34
2019-05-23T17:56:59.195Z,97842.33
2019-05-23T17:59:00.784Z,97849.23
2019-05-23T18:01:02.392Z,97851.98
2019-05-23T18:03:04.051Z,97848.84
2019-05-23T18:05:05.636Z,97851.74
2019-05-23T18:07:07.244Z,97848.81
2019-05-23T18:09:08.836Z,97854.13
2019-05-23T18:11:10.466Z,97847.17
2019-05-23T18:13:12.079Z,97860.75
2019-05-23T18:15:13.816Z,97857.71
2019-05-23T18:17:15.479Z,97858.30
2019-05-23T18:19:17.094Z,97860.12
2019-05-23T18:21:18.688Z,97860.09
2019-05-23T18:23:20.652Z,97863.41
2019-05-23T18:25:22.290Z,97858.52
2019-05-23T18:27:23.900Z,97860.94
2019-05-23T18:29:25.475Z,97856.26
2019-05-23T18:31:29.577Z,97855.91
2019-05-23T18:33:31.268Z,97857.49
2019-05-23T18:35:33.060Z,97855.62
2019-05-23T18:37:34.682Z,97863.00
2019-05-23T18:39:36.338Z,97859.59
2019-05-23T18:41:37.918Z,97861.11
2019-05-23T18:43:39.541Z,97860.34
2019-05-23T18:45:41.127Z,97865.13
2019-05-23T18:47:42.752Z,97868.30
2019-05-23T18:49:44.337Z,97871.67
2019-05-23T18:51:45.943Z,97867.02
2019-05-23T18:53:47.573Z,97866.53
2019-05-23T18:55:49.143Z,97872.67
2019-05-23T18:57:50.740Z,97871.12
2019-05-23T18:59:52.332Z,97867.92
2019-05-23T19:01:53.939Z,97864.72
2019-05-23T19:03:55.573Z,97874.42
2019-05-23T19:05:57.165Z,97876.83
2019-05-23T19:07:58.782Z,97886.72
2019-05-23T19:10:00.461Z,97886.73
2019-05-23T19:12:02.049Z,97888.46
2019-05-23T19:14:03.643Z,97888.90
2019-05-23T19:16:05.239Z,97888.97
2019-05-23T19:18:06.913Z,97889.74
2019-05-23T19:20:08.522Z,97898.34
2019-05-23T19:22:10.184Z,97891.46
2019-05-23T19:24:11.926Z,97887.72
2019-05-23T19:26:13.538Z,97887.77
2019-05-23T19:28:15.127Z,97893.75
2019-05-23T19:30:16.713Z,97893.37
2019-05-23T19:32:18.997Z,97893.02
2019-05-23T19:34:21.072Z,97893.39
2019-05-23T19:36:22.713Z,97899.23
2019-05-23T19:38:24.324Z,97894.61
2019-05-23T19:40:25.935Z,97893.23
2019-05-23T19:42:30.155Z,97869.53
2019-05-23T19:44:31.747Z,97886.25
2019-05-23T19:46:33.987Z,97882.91
2019-05-23T19:48:35.590Z,97888.77
2019-05-23T19:50:37.196Z,97886.80
2019-05-23T19:52:38.805Z,97886.70
2019-05-23T19:54:40.394Z,97889.63
2019-05-23T19:56:41.966Z,97861.58
2019-05-23T19:58:43.584Z,97884.22
2019-05-23T20:00:45.196Z,97882.06
2019-05-23T20:02:50.524Z,97882.83
2019-05-23T20:04:56.955Z,97882.42
2019-05-23T20:06:58.722Z,97881.14
2019-05-23T20:09:00.333Z,97883.25
2019-05-23T20:11:01.952Z,97873.73
2019-05-23T20:13:03.591Z,97879.95
2019-05-23T20:15:05.244Z,97880.75
2019-05-23T20:17:06.830Z,97875.92
2019-05-23T20:19:08.474Z,97880.63
2019-05-23T20:21:10.080Z,97878.69
2019-05-23T20:23:15.487Z,97877.48
2019-05-23T20:25:13.427Z,97881.77
2019-05-23T20:27:15.016Z,97877.50
2019-05-23T20:29:16.676Z,97876.73
2019-05-23T20:31:18.268Z,97871.47
2019-05-23T20:33:19.854Z,97868.19
2019-05-23T20:35:21.461Z,97872.34
2019-05-23T20:37:23.060Z,97872.06
2019-05-23T20:39:24.663Z,97873.00
2019-05-23T20:41:26.235Z,97868.02
2019-05-23T20:43:27.866Z,97867.27
2019-05-23T20:45:29.474Z,97870.47
2019-05-23T20:47:31.054Z,97858.92
2019-05-23T20:49:32.662Z,97859.64
2019-05-23T20:51:34.243Z,97860.17
2019-05-23T20:53:35.838Z,97856.47
2019-05-23T20:55:37.418Z,97861.23
2019-05-23T20:57:39.006Z,97859.75
2019-05-23T20:59:40.622Z,97862.69
2019-05-23T21:01:42.230Z,97857.34
2019-05-23T21:03:43.818Z,97860.36
2019-05-23T21:05:45.425Z,97862.09
2019-05-23T21:07:47.044Z,97859.67
2019-05-23T21:09:48.687Z,97858.73
2019-05-23T21:11:50.449Z,97859.77
2019-05-23T21:13:52.170Z,97865.02
2019-05-23T21:15:53.813Z,97861.70
2019-05-23T21:17:55.422Z,97861.01
2019-05-23T21:19:57.176Z,97860.69
2019-05-23T21:21:58.775Z,97849.01
2019-05-23T21:24:00.360Z,97858.02
2019-05-23T21:26:02.001Z,97863.73
2019-05-23T21:28:03.577Z,97864.23
2019-05-23T21:30:05.164Z,97862.20
2019-05-23T21:32:06.769Z,97849.40
2019-05-23T21:34:08.388Z,97860.25
2019-05-23T21:36:10.006Z,97867.16
2019-05-23T21:38:11.593Z,97865.18
2019-05-23T21:40:13.177Z,97863.54
2019-05-23T21:42:14.761Z,97818.39
2019-05-23T21:44:16.652Z,97865.48
2019-05-23T21:46:18.230Z,97863.84
2019-05-23T21:48:19.829Z,97860.51
2019-05-23T21:50:21.438Z,97857.13
2019-05-23T21:52:23.075Z,97859.34
2019-05-23T21:54:24.688Z,97857.71
2019-05-23T21:56:26.276Z,97856.48
2019-05-23T21:58:27.896Z,97855.30
2019-05-23T22:00:45.203Z,97851.13
2019-05-23T22:02:46.812Z,97853.72
2019-05-23T22:04:49.084Z,97853.78
2019-05-23T22:06:55.320Z,97859.39
2019-05-23T22:08:53.372Z,97855.62
2019-05-23T22:10:54.956Z,97854.45
2019-05-23T22:13:04.240Z,97859.55
2019-05-23T22:14:58.165Z,97862.13
2019-05-23T22:16:59.748Z,97861.33
2019-05-23T22:19:01.411Z,97856.30
2019-05-23T22:21:03.048Z,97851.26
2019-05-23T22:23:04.632Z,97857.59
2019-05-23T22:25:06.224Z,97855.94
2019-05-23T22:27:07.860Z,97858.50
2019-05-23T22:29:09.554Z,97850.55
2019-05-23T22:31:11.156Z,97852.63
2019-05-23T22:33:12.748Z,97851.83
2019-05-23T22:35:14.389Z,97851.84
2019-05-23T22:37:16.007Z,97847.64
2019-05-23T22:39:17.629Z,97855.33
2019-05-23T22:41:19.256Z,97853.25
2019-05-23T22:43:21.533Z,97849.56
2019-05-23T22:45:22.516Z,97851.63
2019-05-23T22:47:24.104Z,97849.16
2019-05-23T22:49:25.712Z,97854.70
2019-05-23T22:51:27.304Z,97853.46
2019-05-23T22:53:28.908Z,97849.66
2019-05-23T22:55:30.540Z,97854.81
2019-05-23T22:57:32.150Z,97858.23
2019-05-23T22:59:33.759Z,97850.58
2019-05-23T23:01:35.386Z,97848.39
2019-05-23T23:03:36.996Z,97849.64
2019-05-23T23:05:38.618Z,97845.39
2019-05-23T23:07:40.212Z,97847.16
2019-05-23T23:09:41.799Z,97848.45
2019-05-23T23:11:43.410Z,97848.89
2019-05-23T23:13:45.003Z,97844.24
2019-05-23T23:15:46.641Z,97853.61
2019-05-23T23:17:48.235Z,97856.16
2019-05-23T23:19:49.820Z,97852.77
2019-05-23T23:21:51.427Z,97856.96
2019-05-23T23:23:53.006Z,97848.88
2019-05-23T23:25:54.648Z,97852.69
2019-05-23T23:27:56.284Z,97856.83
2019-05-23T23:29:57.880Z,97850.28
2019-05-23T23:32:03.654Z,97850.92
2019-05-23T23:34:01.196Z,97851.52
2019-05-23T23:36:02.823Z,97849.17
2019-05-23T23:38:04.424Z,97845.98
2019-05-23T23:40:06.077Z,97842.30
2019-05-23T23:42:07.750Z,97837.48
2019-05-23T23:44:09.475Z,97836.94
2019-05-23T23:46:16.790Z,97832.92
2019-05-23T23:48:24.092Z,97835.81
2019-05-23T23:50:31.453Z,97831.56
2019-05-23T23:52:38.722Z,97827.73
2019-05-23T23:54:46.122Z,97828.58